createdAt,value
2023-01-02T00:01:27.000Z,98402
2023-01-02T00:02:53.000Z,98399
2023-01-02T00:05:00.000Z,98394
2023-01-02T00:06:26.000Z,98386
2023-01-02T00:08:32.000Z,98379
2023-01-02T00:09:59.000Z,98382
2023-01-02T00:12:05.000Z,98399
2023-01-02T00:13:31.000Z,98398
2023-01-02T00:15:38.000Z,98396
2023-01-02T00:17:04.000Z,98392
2023-01-02T00:19:10.000Z,98389
2023-01-02T00:22:01.000Z,98386
2023-01-02T00:23:28.000Z,98378
2023-01-02T00:25:34.000Z,98364
2023-01-02T00:27:00.000Z,98358
2023-01-02T00:29:07.000Z,98349
2023-01-02T00:30:33.000Z,98347
2023-01-02T00:32:44.000Z,98345
2023-01-02T00:34:11.000Z,98346
2023-01-02T00:36:17.000Z,98349
2023-01-02T00:37:43.000Z,98347
2023-01-02T00:39:49.000Z,98347
2023-01-02T00:41:16.000Z,98349
2023-01-02T00:43:22.000Z,98348
2023-01-02T00:44:49.000Z,98342
2023-01-02T00:46:55.000Z,98340
2023-01-02T00:48:21.000Z,98339
2023-01-02T00:50:28.000Z,98339
2023-01-02T00:51:54.000Z,98337
2023-01-02T00:54:00.000Z,98344
2023-01-02T00:55:27.000Z,98340
2023-01-02T00:57:33.000Z,98335
2023-01-02T01:00:24.000Z,98337
2023-01-02T01:01:50.000Z,98338
2023-01-02T01:03:57.000Z,98335
2023-01-02T01:05:23.000Z,98334
2023-01-02T01:07:30.000Z,98335
2023-01-02T01:08:56.000Z,98335
2023-01-02T01:11:02.000Z,98334
2023-01-02T01:12:29.000Z,98336
2023-01-02T01:14:35.000Z,98336
2023-01-02T01:16:01.000Z,98333
2023-01-02T01:18:08.000Z,98329
2023-01-02T01:19:34.000Z,98328
2023-01-02T01:21:40.000Z,98329
2023-01-02T01:23:07.000Z,98329
2023-01-02T01:25:13.000Z,98329
2023-01-02T01:26:39.000Z,98327
2023-01-02T01:28:45.000Z,98329
2023-01-02T01:30:12.000Z,98327
2023-01-02T01:32:18.000Z,98334
2023-01-02T01:33:45.000Z,98333
2023-01-02T01:35:51.000Z,98342
2023-01-02T01:38:42.000Z,98341
2023-01-02T01:40:08.000Z,98338
2023-01-02T01:42:15.000Z,98337
2023-01-02T01:43:41.000Z,98328
2023-01-02T01:45:47.000Z,98331
2023-01-02T01:47:14.000Z,98330
2023-01-02T01:49:20.000Z,98326
2023-01-02T01:50:46.000Z,98322
2023-01-02T01:52:53.000Z,98330
2023-01-02T01:54:19.000Z,98330
2023-01-02T01:56:25.000Z,98327
2023-01-02T01:57:52.000Z,98328
2023-01-02T01:59:58.000Z,98330
2023-01-02T02:01:24.000Z,98327
2023-01-02T02:03:31.000Z,98321
2023-01-02T02:04:57.000Z,98320
2023-01-02T02:07:03.000Z,98324
2023-01-02T02:08:30.000Z,98332
2023-01-02T02:10:36.000Z,98331
2023-01-02T02:12:02.000Z,98334
2023-01-02T02:14:08.000Z,98333
2023-01-02T02:17:00.000Z,98343
2023-01-02T02:18:26.000Z,98344
2023-01-02T02:20:32.000Z,98342
2023-01-02T02:21:59.000Z,98339
2023-01-02T02:24:05.000Z,98340
2023-01-02T02:25:31.000Z,98338
2023-01-02T02:27:37.000Z,98332
2023-01-02T02:29:04.000Z,98332
2023-01-02T02:31:10.000Z,98331
2023-01-02T02:32:37.000Z,98324
2023-01-02T02:34:43.000Z,98324
2023-01-02T02:36:09.000Z,98324
2023-01-02T02:38:16.000Z,98325
2023-01-02T02:39:42.000Z,98328
2023-01-02T02:41:48.000Z,98322
2023-01-02T02:43:15.000Z,98324
2023-01-02T02:45:21.000Z,98320
2023-01-02T02:46:47.000Z,98318
2023-01-02T02:48:54.000Z,98315
2023-01-02T02:50:20.000Z,98313
2023-01-02T02:52:26.000Z,98311
2023-01-02T02:55:17.000Z,98307
2023-01-02T02:56:44.000Z,98298
2023-01-02T02:58:50.000Z,98295
2023-01-02T03:00:17.000Z,98296
2023-01-02T03:02:23.000Z,98299
2023-01-02T03:03:50.000Z,98293
2023-01-02T03:05:56.000Z,98295
2023-01-02T03:07:22.000Z,98303
2023-01-02T03:09:28.000Z,98300
2023-01-02T03:10:55.000Z,98295
2023-01-02T03:13:01.000Z,98299
2023-01-02T03:14:27.000Z,98301
2023-01-02T03:16:33.000Z,98294
2023-01-02T03:18:00.000Z,98296
2023-01-02T03:20:06.000Z,98294
2023-01-02T03:21:33.000Z,98296
2023-01-02T03:23:39.000Z,98295
2023-01-02T03:25:05.000Z,98296
2023-01-02T03:27:11.000Z,98291
2023-01-02T03:28:38.000Z,98294
2023-01-02T03:30:44.000Z,98294
2023-01-02T03:33:36.000Z,98304
2023-01-02T03:35:02.000Z,98299
2023-01-02T03:37:08.000Z,98299
2023-01-02T03:38:35.000Z,98299
2023-01-02T03:40:41.000Z,98301
2023-01-02T03:42:07.000Z,98301
2023-01-02T03:44:13.000Z,98298
2023-01-02T03:45:40.000Z,98298
2023-01-02T03:47:46.000Z,98289
2023-01-02T03:49:13.000Z,98291
2023-01-02T03:51:19.000Z,98284
2023-01-02T03:52:45.000Z,98282
2023-01-02T03:54:51.000Z,98280
2023-01-02T03:56:18.000Z,98281
2023-01-02T03:58:24.000Z,98281
2023-01-02T03:59:50.000Z,98283
2023-01-02T04:01:56.000Z,98279
2023-01-02T04:03:23.000Z,98278
2023-01-02T04:05:29.000Z,98275
2023-01-02T04:06:56.000Z,98279
2023-01-02T04:09:02.000Z,98286
2023-01-02T04:11:53.000Z,98282
2023-01-02T04:13:20.000Z,98283
2023-01-02T04:15:26.000Z,98275
2023-01-02T04:16:52.000Z,98279
2023-01-02T04:18:59.000Z,98277
2023-01-02T04:20:25.000Z,98280
2023-01-02T04:22:31.000Z,98287
2023-01-02T04:23:58.000Z,98288
2023-01-02T04:26:04.000Z,98295
2023-01-02T04:27:30.000Z,98289
2023-01-02T04:29:36.000Z,98282
2023-01-02T04:31:03.000Z,98288
2023-01-02T04:33:09.000Z,98291
2023-01-02T04:34:36.000Z,98291
2023-01-02T04:36:42.000Z,98289
2023-01-02T04:38:08.000Z,98286
2023-01-02T04:40:14.000Z,98288
2023-01-02T04:41:41.000Z,98289
2023-01-02T04:43:47.000Z,98297
2023-01-02T04:45:14.000Z,98293
2023-01-02T04:47:20.000Z,98295
2023-01-02T04:50:13.000Z,98293
2023-01-02T04:51:39.000Z,98295
2023-01-02T04:53:45.000Z,98303
2023-01-02T04:55:12.000Z,98298
2023-01-02T04:57:18.000Z,98308
2023-01-02T04:58:44.000Z,98310
2023-01-02T05:00:50.000Z,98308
2023-01-02T05:02:17.000Z,98314
2023-01-02T05:04:23.000Z,98314
2023-01-02T05:05:50.000Z,98313
2023-01-02T05:07:56.000Z,98315
2023-01-02T05:09:22.000Z,98324
2023-01-02T05:11:28.000Z,98324
2023-01-02T05:12:55.000Z,98326
2023-01-02T05:15:01.000Z,98330
2023-01-02T05:16:28.000Z,98324
2023-01-02T05:18:34.000Z,98331
2023-01-02T05:20:00.000Z,98332
2023-01-02T05:22:07.000Z,98335
2023-01-02T05:23:33.000Z,98336
2023-01-02T05:25:39.000Z,98341
2023-01-02T05:28:31.000Z,98345
2023-01-02T05:30:04.000Z,98345
2023-01-02T05:32:10.000Z,98347
2023-01-02T05:33:37.000Z,98350
2023-01-02T05:35:43.000Z,98353
2023-01-02T05:37:10.000Z,98349
2023-01-02T05:39:16.000Z,98348
2023-01-02T05:40:42.000Z,98350
2023-01-02T05:42:48.000Z,98350
2023-01-02T05:44:15.000Z,98353
2023-01-02T05:46:21.000Z,98351
2023-01-02T05:47:47.000Z,98351
2023-01-02T05:49:54.000Z,98347
2023-01-02T05:51:20.000Z,98350
2023-01-02T05:53:27.000Z,98350
2023-01-02T05:54:53.000Z,98345
2023-01-02T05:56:59.000Z,98348
2023-01-02T05:58:26.000Z,98343
2023-01-02T06:00:32.000Z,98344
2023-01-02T06:01:58.000Z,98340
2023-01-02T06:04:05.000Z,98340
2023-01-02T06:06:56.000Z,98339
2023-01-02T06:08:23.000Z,98349
2023-01-02T06:10:29.000Z,98342
2023-01-02T06:11:55.000Z,98345
2023-01-02T06:14:01.000Z,98343
2023-01-02T06:15:28.000Z,98342
2023-01-02T06:17:34.000Z,98340
2023-01-02T06:19:00.000Z,98338
2023-01-02T06:21:07.000Z,98343
2023-01-02T06:22:33.000Z,98337
2023-01-02T06:24:39.000Z,98338
2023-01-02T06:26:06.000Z,98344
2023-01-02T06:28:12.000Z,98345
2023-01-02T06:29:38.000Z,98343
2023-01-02T06:31:44.000Z,98346
2023-01-02T06:33:17.000Z,98349
2023-01-02T06:35:23.000Z,98347
2023-01-02T06:36:50.000Z,98346
2023-01-02T06:38:56.000Z,98350
2023-01-02T06:40:22.000Z,98350
2023-01-02T06:42:29.000Z,98344
2023-01-02T06:45:20.000Z,98352
2023-01-02T06:46:47.000Z,98356
2023-01-02T06:48:53.000Z,98352
2023-01-02T06:50:19.000Z,98349
2023-01-02T06:52:31.000Z,98353
2023-01-02T06:53:57.000Z,98360
2023-01-02T06:56:04.000Z,98359
2023-01-02T06:57:30.000Z,98356
2023-01-02T06:59:36.000Z,98356
2023-01-02T07:01:03.000Z,98360
2023-01-02T07:03:09.000Z,98353
2023-01-02T07:04:36.000Z,98351
2023-01-02T07:06:42.000Z,98363
2023-01-02T07:08:08.000Z,98363
2023-01-02T07:10:14.000Z,98367
2023-01-02T07:11:41.000Z,98375
2023-01-02T07:13:47.000Z,98382
2023-01-02T07:15:13.000Z,98378
2023-01-02T07:17:20.000Z,98379
2023-01-02T07:18:46.000Z,98375
2023-01-02T07:20:52.000Z,98338
2023-01-02T07:23:43.000Z,98365
2023-01-02T07:25:10.000Z,98377
2023-01-02T07:27:16.000Z,98381
2023-01-02T07:28:43.000Z,98379
2023-01-02T07:30:49.000Z,98383
2023-01-02T07:32:15.000Z,98393
2023-01-02T07:34:21.000Z,98393
2023-01-02T07:35:48.000Z,98385
2023-01-02T07:37:54.000Z,98381
2023-01-02T07:39:21.000Z,98367
2023-01-02T07:41:27.000Z,98353
2023-01-02T07:42:53.000Z,98356
2023-01-02T07:44:59.000Z,98368
2023-01-02T07:46:26.000Z,98370
2023-01-02T07:48:32.000Z,98370
2023-01-02T07:49:59.000Z,98377
2023-01-02T07:52:05.000Z,98380
2023-01-02T07:53:31.000Z,98379
2023-01-02T07:55:37.000Z,98375
2023-01-02T07:57:04.000Z,98373
2023-01-02T07:59:10.000Z,98380
2023-01-02T08:02:01.000Z,98372
2023-01-02T08:03:28.000Z,98374
2023-01-02T08:05:34.000Z,98380
2023-01-02T08:07:01.000Z,98378
2023-01-02T08:09:07.000Z,98377
2023-01-02T08:10:33.000Z,98377
2023-01-02T08:12:39.000Z,98394
2023-01-02T08:14:06.000Z,98395
2023-01-02T08:16:12.000Z,98401
2023-01-02T08:17:39.000Z,98406
2023-01-02T08:19:45.000Z,98406
2023-01-02T08:21:11.000Z,98401
2023-01-02T08:23:17.000Z,98390
2023-01-02T08:24:44.000Z,98388
2023-01-02T08:26:50.000Z,98395
2023-01-02T08:28:17.000Z,98393
2023-01-02T08:30:23.000Z,98386
2023-01-02T08:31:49.000Z,98382
2023-01-02T08:33:55.000Z,98381
2023-01-02T08:35:22.000Z,98374
2023-01-02T08:37:44.000Z,98377
2023-01-02T08:40:41.000Z,98380
2023-01-02T08:42:08.000Z,98397
2023-01-02T08:44:14.000Z,98413
2023-01-02T08:45:40.000Z,98412
2023-01-02T08:47:46.000Z,98414
2023-01-02T08:49:13.000Z,98418
2023-01-02T08:51:19.000Z,98421
2023-01-02T08:52:46.000Z,98418
2023-01-02T08:54:52.000Z,98418
2023-01-02T08:56:18.000Z,98419
2023-01-02T08:58:25.000Z,98424
2023-01-02T08:59:51.000Z,98425
2023-01-02T09:01:57.000Z,98426
2023-01-02T09:03:24.000Z,98430
2023-01-02T09:05:30.000Z,98429
2023-01-02T09:06:57.000Z,98427
2023-01-02T09:09:03.000Z,98430
2023-01-02T09:10:38.000Z,98434
2023-01-02T09:12:44.000Z,98429
2023-01-02T09:14:10.000Z,98432
2023-01-02T09:16:17.000Z,98454
2023-01-02T09:19:08.000Z,98460
2023-01-02T09:20:34.000Z,98461
2023-01-02T09:22:40.000Z,98473
2023-01-02T09:24:08.000Z,98471
2023-01-02T09:26:14.000Z,98474
2023-01-02T09:27:41.000Z,98475
2023-01-02T09:29:47.000Z,98475
2023-01-02T09:31:13.000Z,98476
2023-01-02T09:33:19.000Z,98474
2023-01-02T09:34:46.000Z,98474
2023-01-02T09:36:52.000Z,98474
2023-01-02T09:38:19.000Z,98475
2023-01-02T09:40:25.000Z,98475
2023-01-02T09:41:51.000Z,98473
2023-01-02T09:43:57.000Z,98468
2023-01-02T09:45:24.000Z,98467
2023-01-02T09:47:30.000Z,98477
2023-01-02T09:48:57.000Z,98472
2023-01-02T09:51:03.000Z,98490
2023-01-02T09:52:34.000Z,98480
2023-01-02T09:54:40.000Z,98476
2023-01-02T09:57:31.000Z,98483
2023-01-02T09:58:58.000Z,98495
2023-01-02T10:01:04.000Z,98497
2023-01-02T10:02:31.000Z,98490
2023-01-02T10:04:37.000Z,98489
2023-01-02T10:06:03.000Z,98491
2023-01-02T10:08:09.000Z,98487
2023-01-02T10:09:36.000Z,98490
2023-01-02T10:11:42.000Z,98501
2023-01-02T10:13:09.000Z,98501
2023-01-02T10:15:15.000Z,98498
2023-01-02T10:16:41.000Z,98501
2023-01-02T10:18:47.000Z,98492
2023-01-02T10:20:14.000Z,98489
2023-01-02T10:22:26.000Z,98494
2023-01-02T10:23:52.000Z,98500
2023-01-02T10:25:59.000Z,98497
2023-01-02T10:27:25.000Z,98496
2023-01-02T10:29:31.000Z,98493
2023-01-02T10:30:58.000Z,98485
2023-01-02T10:33:11.000Z,98480
2023-01-02T10:36:02.000Z,98483
2023-01-02T10:37:28.000Z,98476
2023-01-02T10:39:34.000Z,98489
2023-01-02T10:41:01.000Z,98493
2023-01-02T10:43:07.000Z,98496
2023-01-02T10:44:33.000Z,98493
2023-01-02T10:46:40.000Z,98496
2023-01-02T10:48:06.000Z,98498
2023-01-02T10:50:12.000Z,98507
2023-01-02T10:51:39.000Z,98512
2023-01-02T10:53:45.000Z,98511
2023-01-02T10:55:12.000Z,98503
2023-01-02T10:57:18.000Z,98515
2023-01-02T10:58:44.000Z,98518
2023-01-02T11:00:50.000Z,98515
2023-01-02T11:02:17.000Z,98506
2023-01-02T11:04:23.000Z,98506
2023-01-02T11:05:50.000Z,98506
2023-01-02T11:07:56.000Z,98506
2023-01-02T11:09:22.000Z,98503
2023-01-02T11:11:28.000Z,98505
2023-01-02T11:14:20.000Z,98511
2023-01-02T11:15:46.000Z,98512
2023-01-02T11:17:52.000Z,98511
2023-01-02T11:19:19.000Z,98510
2023-01-02T11:21:30.000Z,98511
2023-01-02T11:22:56.000Z,98510
2023-01-02T11:25:02.000Z,98507
2023-01-02T11:26:29.000Z,98503
2023-01-02T11:28:35.000Z,98510
2023-01-02T11:30:01.000Z,98504
2023-01-02T11:32:08.000Z,98505
2023-01-02T11:33:34.000Z,98505
2023-01-02T11:35:40.000Z,98501
2023-01-02T11:37:07.000Z,98496
2023-01-02T11:39:13.000Z,98508
2023-01-02T11:40:40.000Z,98512
2023-01-02T11:42:46.000Z,98511
2023-01-02T11:44:12.000Z,98512
2023-01-02T11:46:26.000Z,98508
2023-01-02T11:47:52.000Z,98511
2023-01-02T11:49:58.000Z,98515
2023-01-02T11:52:50.000Z,98516
2023-01-02T11:54:16.000Z,98519
2023-01-02T11:56:22.000Z,98521
2023-01-02T11:57:49.000Z,98526
2023-01-02T11:59:55.000Z,98520
2023-01-02T12:01:21.000Z,98525
2023-01-02T12:03:28.000Z,98527
2023-01-02T12:04:54.000Z,98529
2023-01-02T12:07:00.000Z,98528
2023-01-02T12:08:27.000Z,98531
2023-01-02T12:10:33.000Z,98532
2023-01-02T12:11:59.000Z,98535
2023-01-02T12:14:05.000Z,98530
2023-01-02T12:15:32.000Z,98532
2023-01-02T12:17:38.000Z,98528
2023-01-02T12:19:05.000Z,98532
2023-01-02T12:21:11.000Z,98530
2023-01-02T12:22:37.000Z,98533
2023-01-02T12:24:43.000Z,98540
2023-01-02T12:26:10.000Z,98534
2023-01-02T12:28:16.000Z,98538
2023-01-02T12:31:08.000Z,98541
2023-01-02T12:32:34.000Z,98536
2023-01-02T12:34:40.000Z,98539
2023-01-02T12:36:07.000Z,98539
2023-01-02T12:38:13.000Z,98537
2023-01-02T12:39:45.000Z,98548
2023-01-02T12:41:52.000Z,98541
2023-01-02T12:43:28.000Z,98532
2023-01-02T12:45:34.000Z,98539
2023-01-02T12:47:01.000Z,98547
2023-01-02T12:49:07.000Z,98551
2023-01-02T12:50:34.000Z,98549
2023-01-02T12:52:40.000Z,98549
2023-01-02T12:54:06.000Z,98550
2023-01-02T12:56:26.000Z,98551
2023-01-02T12:57:53.000Z,98547
2023-01-02T12:59:59.000Z,98546
2023-01-02T13:01:25.000Z,98556
2023-01-02T13:03:32.000Z,98550
2023-01-02T13:04:58.000Z,98557
2023-01-02T13:07:04.000Z,98570
2023-01-02T13:10:15.000Z,98567
2023-01-02T13:11:41.000Z,98565
2023-01-02T13:13:47.000Z,98574
2023-01-02T13:15:14.000Z,98575
2023-01-02T13:17:20.000Z,98571
2023-01-02T13:18:46.000Z,98572
2023-01-02T13:21:06.000Z,98579
2023-01-02T13:22:33.000Z,98581
2023-01-02T13:24:39.000Z,98579
2023-01-02T13:26:05.000Z,98581
2023-01-02T13:28:12.000Z,98575
2023-01-02T13:29:38.000Z,98574
2023-01-02T13:31:44.000Z,98578
2023-01-02T13:33:14.000Z,98579
2023-01-02T13:35:20.000Z,98581
2023-01-02T13:36:46.000Z,98576
2023-01-02T13:38:52.000Z,98578
2023-01-02T13:40:19.000Z,98576
2023-01-02T13:42:25.000Z,98582
2023-01-02T13:43:51.000Z,98578
2023-01-02T13:45:58.000Z,98571
2023-01-02T13:48:49.000Z,98581
2023-01-02T13:50:15.000Z,98583
2023-01-02T13:52:21.000Z,98578
2023-01-02T13:53:48.000Z,98580
2023-01-02T13:55:54.000Z,98579
2023-01-02T13:57:20.000Z,98580
2023-01-02T13:59:27.000Z,98576
2023-01-02T14:01:09.000Z,98579
2023-01-02T14:03:15.000Z,98579
2023-01-02T14:04:42.000Z,98585
2023-01-02T14:06:48.000Z,98585
2023-01-02T14:08:20.000Z,98580
2023-01-02T14:10:26.000Z,98582
2023-01-02T14:11:53.000Z,98585
2023-01-02T14:14:03.000Z,98579
2023-01-02T14:15:29.000Z,98583
2023-01-02T14:17:36.000Z,98587
2023-01-02T14:19:02.000Z,98592
2023-01-02T14:21:08.000Z,98593
2023-01-02T14:22:35.000Z,98592
2023-01-02T14:24:41.000Z,98594
2023-01-02T14:27:32.000Z,98598
2023-01-02T14:28:59.000Z,98596
2023-01-02T14:31:05.000Z,98597
2023-01-02T14:32:32.000Z,98602
2023-01-02T14:34:38.000Z,98605
2023-01-02T14:36:04.000Z,98608
2023-01-02T14:38:10.000Z,98604
2023-01-02T14:39:37.000Z,98603
2023-01-02T14:41:43.000Z,98601
2023-01-02T14:43:09.000Z,98593
2023-01-02T14:45:15.000Z,98593
2023-01-02T14:46:42.000Z,98589
2023-01-02T14:48:48.000Z,98598
2023-01-02T14:50:15.000Z,98601
2023-01-02T14:52:21.000Z,98607
2023-01-02T14:53:47.000Z,98606
2023-01-02T14:55:53.000Z,98610
2023-01-02T14:57:20.000Z,98613
2023-01-02T14:59:26.000Z,98623
2023-01-02T15:00:52.000Z,98625
2023-01-02T15:02:58.000Z,98627
2023-01-02T15:05:50.000Z,98624
2023-01-02T15:07:16.000Z,98624
2023-01-02T15:09:23.000Z,98622
2023-01-02T15:10:49.000Z,98619
2023-01-02T15:12:55.000Z,98624
2023-01-02T15:14:22.000Z,98630
2023-01-02T15:16:30.000Z,98635
2023-01-02T15:17:56.000Z,98639
2023-01-02T15:20:02.000Z,98643
2023-01-02T15:21:29.000Z,98642
2023-01-02T15:23:35.000Z,98639
2023-01-02T15:25:02.000Z,98641
2023-01-02T15:27:08.000Z,98636
2023-01-02T15:28:34.000Z,98635
2023-01-02T15:30:40.000Z,98634
2023-01-02T15:32:07.000Z,98635
2023-01-02T15:34:13.000Z,98646
2023-01-02T15:35:40.000Z,98652
2023-01-02T15:37:46.000Z,98654
2023-01-02T15:39:12.000Z,98654
2023-01-02T15:41:18.000Z,98654
2023-01-02T15:44:09.000Z,98653
2023-01-02T15:45:36.000Z,98651
2023-01-02T15:47:42.000Z,98660
2023-01-02T15:49:09.000Z,98659
2023-01-02T15:51:15.000Z,98657
2023-01-02T15:52:41.000Z,98655
2023-01-02T15:54:48.000Z,98656
2023-01-02T15:56:14.000Z,98651
2023-01-02T15:58:20.000Z,98663
2023-01-02T15:59:47.000Z,98658
2023-01-02T16:01:53.000Z,98661
2023-01-02T16:03:19.000Z,98670
2023-01-02T16:05:26.000Z,98673
2023-01-02T16:06:52.000Z,98671
2023-01-02T16:08:58.000Z,98677
2023-01-02T16:10:25.000Z,98679
2023-01-02T16:12:31.000Z,98693
2023-01-02T16:13:57.000Z,98689
2023-01-02T16:16:04.000Z,98698
2023-01-02T16:17:42.000Z,98699
2023-01-02T16:19:48.000Z,98701
2023-01-02T16:22:48.000Z,98708
2023-01-02T16:24:15.000Z,98708
2023-01-02T16:26:21.000Z,98716
2023-01-02T16:27:48.000Z,98723
2023-01-02T16:29:54.000Z,98727
2023-01-02T16:31:20.000Z,98730
2023-01-02T16:33:27.000Z,98737
2023-01-02T16:34:53.000Z,98741
2023-01-02T16:37:00.000Z,98743
2023-01-02T16:38:26.000Z,98741
2023-01-02T16:40:32.000Z,98754
2023-01-02T16:42:29.000Z,98757
2023-01-02T16:44:35.000Z,98755
2023-01-02T16:46:01.000Z,98761
2023-01-02T16:48:07.000Z,98760
2023-01-02T16:49:34.000Z,98758
2023-01-02T16:51:40.000Z,98765
2023-01-02T16:53:07.000Z,98774
2023-01-02T16:55:13.000Z,98772
2023-01-02T16:56:39.000Z,98767
2023-01-02T16:58:45.000Z,98763
2023-01-02T17:01:37.000Z,98753
2023-01-02T17:03:04.000Z,98749
2023-01-02T17:05:10.000Z,98758
2023-01-02T17:06:36.000Z,98762
2023-01-02T17:08:43.000Z,98779
2023-01-02T17:10:09.000Z,98782
2023-01-02T17:12:15.000Z,98786
2023-01-02T17:13:42.000Z,98782
2023-01-02T17:15:48.000Z,98779
2023-01-02T17:17:14.000Z,98779
2023-01-02T17:19:20.000Z,98775
2023-01-02T17:20:47.000Z,98776
2023-01-02T17:22:53.000Z,98774
2023-01-02T17:24:20.000Z,98766
2023-01-02T17:26:26.000Z,98765
2023-01-02T17:27:52.000Z,98760
2023-01-02T17:29:59.000Z,98769
2023-01-02T17:31:25.000Z,98771
2023-01-02T17:33:32.000Z,98786
2023-01-02T17:34:59.000Z,98793
2023-01-02T17:37:05.000Z,98814
2023-01-02T17:39:56.000Z,98828
2023-01-02T17:41:23.000Z,98833
2023-01-02T17:43:29.000Z,98838
2023-01-02T17:44:55.000Z,98835
2023-01-02T17:47:01.000Z,98830
2023-01-02T17:49:05.000Z,98836
2023-01-02T17:51:11.000Z,98842
2023-01-02T17:52:37.000Z,98836
2023-01-02T17:54:44.000Z,98844
2023-01-02T17:56:10.000Z,98849
2023-01-02T17:58:28.000Z,98857
2023-01-02T17:59:55.000Z,98859
2023-01-02T18:02:01.000Z,98862
2023-01-02T18:03:28.000Z,98873
2023-01-02T18:05:34.000Z,98876
2023-01-02T18:07:01.000Z,98879
2023-01-02T18:09:07.000Z,98878
2023-01-02T18:10:33.000Z,98882
2023-01-02T18:12:40.000Z,98881
2023-01-02T18:14:06.000Z,98882
2023-01-02T18:16:12.000Z,98885
2023-01-02T18:21:03.000Z,98898
2023-01-02T18:23:09.000Z,98903
2023-01-02T18:24:35.000Z,98906
2023-01-02T18:26:41.000Z,98907
2023-01-02T18:28:08.000Z,98918
2023-01-02T18:30:14.000Z,98921
2023-01-02T18:31:41.000Z,98922
2023-01-02T18:33:47.000Z,98921
2023-01-02T18:35:13.000Z,98921
2023-01-02T18:38:01.000Z,98932
2023-01-02T18:39:28.000Z,98939
2023-01-02T18:41:34.000Z,98943
2023-01-02T18:43:00.000Z,98946
2023-01-02T18:45:07.000Z,98946
2023-01-02T18:46:33.000Z,98938
2023-01-02T18:49:10.000Z,98938
2023-01-02T18:50:37.000Z,98943
2023-01-02T18:52:43.000Z,98943
2023-01-02T18:54:09.000Z,98943
2023-01-02T18:56:15.000Z,98949
2023-01-02T18:59:07.000Z,98955
2023-01-02T19:00:33.000Z,98956
2023-01-02T19:02:39.000Z,98965
2023-01-02T19:04:06.000Z,98973
2023-01-02T19:06:25.000Z,98983
2023-01-02T19:07:51.000Z,98987
2023-01-02T19:09:57.000Z,98998
2023-01-02T19:11:24.000Z,98999
2023-01-02T19:13:30.000Z,99000
2023-01-02T19:14:56.000Z,99014
2023-01-02T19:17:02.000Z,99008
2023-01-02T19:18:29.000Z,99010
2023-01-02T19:20:35.000Z,99012
2023-01-02T19:22:02.000Z,99017
2023-01-02T19:24:08.000Z,99015
2023-01-02T19:25:34.000Z,99017
2023-01-02T19:27:40.000Z,99014
2023-01-02T19:29:07.000Z,99014
2023-01-02T19:31:13.000Z,99019
2023-01-02T19:32:40.000Z,99017
2023-01-02T19:34:46.000Z,99011
2023-01-02T19:37:37.000Z,99014
2023-01-02T19:39:03.000Z,99019
2023-01-02T19:41:09.000Z,99029
2023-01-02T19:42:36.000Z,99035
2023-01-02T19:44:42.000Z,99033
2023-01-02T19:46:09.000Z,99038
2023-01-02T19:48:15.000Z,99040
2023-01-02T19:49:44.000Z,99048
2023-01-02T19:51:51.000Z,99047
2023-01-02T19:53:17.000Z,99046
2023-01-02T19:55:23.000Z,99052
2023-01-02T19:56:50.000Z,99051
2023-01-02T19:58:56.000Z,99053
2023-01-02T20:00:22.000Z,99051
2023-01-02T20:02:29.000Z,99060
2023-01-02T20:03:55.000Z,99060
2023-01-02T20:06:01.000Z,99065
2023-01-02T20:07:28.000Z,99061
2023-01-02T20:09:34.000Z,99064
2023-01-02T20:11:01.000Z,99061
2023-01-02T20:13:07.000Z,99061
2023-01-02T20:15:57.000Z,99060
2023-01-02T20:17:24.000Z,99060
2023-01-02T20:19:30.000Z,99065
2023-01-02T20:20:57.000Z,99069
2023-01-02T20:23:03.000Z,99075
2023-01-02T20:24:29.000Z,99076
2023-01-02T20:26:35.000Z,99079
2023-01-02T20:28:02.000Z,99081
2023-01-02T20:30:08.000Z,99080
2023-01-02T20:31:34.000Z,99083
2023-01-02T20:33:41.000Z,99085
2023-01-02T20:35:07.000Z,99085
2023-01-02T20:37:13.000Z,99088
2023-01-02T20:38:40.000Z,99088
2023-01-02T20:40:46.000Z,99093
2023-01-02T20:42:12.000Z,99094
2023-01-02T20:44:19.000Z,99101
2023-01-02T20:45:46.000Z,99096
2023-01-02T20:47:52.000Z,99097
2023-01-02T20:49:18.000Z,99098
2023-01-02T20:51:24.000Z,99112
2023-01-02T20:54:15.000Z,99123
2023-01-02T20:55:42.000Z,99124
2023-01-02T20:57:48.000Z,99125
2023-01-02T20:59:19.000Z,99130
2023-01-02T21:01:25.000Z,99136
2023-01-02T21:02:52.000Z,99137
2023-01-02T21:04:59.000Z,99140
2023-01-02T21:06:25.000Z,99146
2023-01-02T21:08:31.000Z,99156
2023-01-02T21:09:58.000Z,99162
2023-01-02T21:12:04.000Z,99170
2023-01-02T21:13:31.000Z,99169
2023-01-02T21:15:37.000Z,99171
2023-01-02T21:17:03.000Z,99175
2023-01-02T21:19:09.000Z,99177
2023-01-02T21:20:36.000Z,99178
2023-01-02T21:22:50.000Z,99174
2023-01-02T21:24:16.000Z,99175
2023-01-02T21:26:22.000Z,99179
2023-01-02T21:27:49.000Z,99177
2023-01-02T21:29:55.000Z,99179
2023-01-02T21:32:46.000Z,99180
2023-01-02T21:34:13.000Z,99182
2023-01-02T21:36:19.000Z,99180
2023-01-02T21:37:46.000Z,99184
2023-01-02T21:39:52.000Z,99182
2023-01-02T21:41:18.000Z,99183
2023-01-02T21:43:24.000Z,99186
2023-01-02T21:44:51.000Z,99188
2023-01-02T21:46:57.000Z,99186
2023-01-02T21:48:24.000Z,99187
2023-01-02T21:50:30.000Z,99188
2023-01-02T21:51:56.000Z,99194
2023-01-02T21:54:02.000Z,99196
2023-01-02T21:55:29.000Z,99199
2023-01-02T21:59:11.000Z,99199
2023-01-02T22:01:17.000Z,99204
2023-01-02T22:02:44.000Z,99204
2023-01-02T22:04:51.000Z,99206
2023-01-02T22:06:17.000Z,99208
2023-01-02T22:08:23.000Z,99209
2023-01-02T22:11:15.000Z,99207
2023-01-02T22:12:41.000Z,99213
2023-01-02T22:14:47.000Z,99216
2023-01-02T22:16:14.000Z,99217
2023-01-02T22:18:20.000Z,99221
2023-01-02T22:19:46.000Z,99221
2023-01-02T22:21:52.000Z,99229
2023-01-02T22:23:19.000Z,99229
2023-01-02T22:25:25.000Z,99223
2023-01-02T22:26:52.000Z,99231
2023-01-02T22:28:58.000Z,99234
2023-01-02T22:30:24.000Z,99233
2023-01-02T22:32:40.000Z,99238
2023-01-02T22:34:06.000Z,99239
2023-01-02T22:36:12.000Z,99251
2023-01-02T22:37:39.000Z,99247
2023-01-02T22:39:45.000Z,99250
2023-01-02T22:41:12.000Z,99247
2023-01-02T22:43:18.000Z,99253
2023-01-02T22:44:51.000Z,99253
2023-01-02T22:46:57.000Z,99255
2023-01-02T22:49:48.000Z,99256
2023-01-02T22:51:15.000Z,99263
2023-01-02T22:53:21.000Z,99264
2023-01-02T22:54:47.000Z,99260
2023-01-02T22:56:53.000Z,99259
2023-01-02T22:58:20.000Z,99260
2023-01-02T23:00:26.000Z,99262
2023-01-02T23:01:52.000Z,99266
2023-01-02T23:03:59.000Z,99267
2023-01-02T23:05:25.000Z,99270
2023-01-02T23:07:31.000Z,99270
2023-01-02T23:08:58.000Z,99275
2023-01-02T23:11:04.000Z,99276
2023-01-02T23:12:31.000Z,99269
2023-01-02T23:14:37.000Z,99272
2023-01-02T23:16:03.000Z,99269
2023-01-02T23:18:09.000Z,99269
2023-01-02T23:19:36.000Z,99274
2023-01-02T23:21:42.000Z,99279
2023-01-02T23:23:09.000Z,99273
2023-01-02T23:25:15.000Z,99282
2023-01-02T23:28:06.000Z,99279
2023-01-02T23:29:32.000Z,99288
2023-01-02T23:31:38.000Z,99295
2023-01-02T23:33:05.000Z,99295
2023-01-02T23:35:11.000Z,99302
2023-01-02T23:36:38.000Z,99304
2023-01-02T23:38:44.000Z,99298
2023-01-02T23:40:10.000Z,99301